createdAt,value
2019-04-03T00:00:37.959Z,99689.27
2019-04-03T00:03:26.740Z,99662.84
2019-04-03T00:06:15.581Z,99662.41
2019-04-03T00:12:33.082Z,99674.53
2019-04-03T00:15:21.904Z,99690.56
2019-04-03T00:18:10.931Z,99691.45
2019-04-03T00:20:59.688Z,99682.41
2019-04-03T00:23:48.521Z,99680.19
2019-04-03T00:26:37.346Z,99693.06
2019-04-03T00:29:26.177Z,99688.19
2019-04-03T00:32:14.985Z,99686.00
2019-04-03T00:38:18.599Z,99660.52
2019-04-03T00:41:07.416Z,99678.64
2019-04-03T00:44:15.348Z,99684.67
2019-04-03T00:50:32.469Z,99691.16
2019-04-03T00:53:14.560Z,99685.16
2019-04-03T00:56:22.433Z,99693.86
2019-04-03T00:59:11.281Z,99686.50
2019-04-03T01:02:19.194Z,99694.24
2019-04-03T01:05:08.111Z,99686.86
2019-04-03T01:07:59.251Z,99692.03
2019-04-03T01:10:47.483Z,99697.33
2019-04-03T01:13:36.380Z,99696.86
2019-04-03T01:16:25.246Z,99688.71
2019-04-03T01:19:14.195Z,99691.26
2019-04-03T01:22:03.042Z,99692.06
2019-04-03T01:24:51.847Z,99704.55
2019-04-03T01:27:41.623Z,99708.02
2019-04-03T01:30:31.362Z,99704.60
2019-04-03T01:33:20.218Z,99707.65
2019-04-03T01:36:09.052Z,99705.78
2019-04-03T01:38:57.873Z,99701.59
2019-04-03T01:41:46.717Z,99704.66
2019-04-03T01:44:35.541Z,99693.75
2019-04-03T01:47:24.369Z,99689.41
2019-04-03T01:50:13.255Z,99682.59
2019-04-03T01:52:55.241Z,99680.78
2019-04-03T01:55:44.063Z,99667.31
2019-04-03T01:58:32.901Z,99674.23
2019-04-03T02:01:21.714Z,99672.09
2019-04-03T02:04:12.131Z,99666.03
2019-04-03T02:07:01.101Z,99661.69
2019-04-03T02:09:49.947Z,99663.42
2019-04-03T02:12:38.794Z,99659.13
2019-04-03T02:15:27.611Z,99671.11
2019-04-03T02:18:16.459Z,99673.73
2019-04-03T02:21:05.249Z,99665.55
2019-04-03T02:23:54.102Z,99671.14
2019-04-03T02:26:42.920Z,99666.85
2019-04-03T02:29:50.863Z,99666.87
2019-04-03T02:32:39.709Z,99659.09
2019-04-03T02:35:28.551Z,99659.13
2019-04-03T02:38:21.319Z,99648.34
2019-04-03T02:41:07.938Z,99656.45
2019-04-03T02:43:56.752Z,99666.03
2019-04-03T02:46:45.713Z,99658.63
2019-04-03T02:49:34.513Z,99642.14
2019-04-03T02:55:31.581Z,99641.27
2019-04-03T02:58:22.049Z,99640.03
2019-04-03T03:01:10.947Z,99652.64
2019-04-03T03:04:21.787Z,99656.95
2019-04-03T03:07:09.521Z,99656.54
2019-04-03T03:13:26.921Z,99652.16
2019-04-03T03:16:18.760Z,99647.59
2019-04-03T03:19:07.892Z,99653.59
2019-04-03T03:22:18.592Z,99661.39
2019-04-03T03:25:08.291Z,99660.20
2019-04-03T03:31:12.779Z,99655.38
2019-04-03T03:37:18.143Z,99650.48
2019-04-03T03:40:08.832Z,99647.91
2019-04-03T03:43:17.022Z,99648.34
2019-04-03T03:46:16.574Z,99641.03
2019-04-03T03:52:21.031Z,99625.91
2019-04-03T03:55:05.483Z,99618.11
2019-04-03T04:01:09.353Z,99612.94
2019-04-03T04:07:12.741Z,99609.02
2019-04-03T04:13:30.264Z,99610.16
2019-04-03T04:16:21.179Z,99606.19
2019-04-03T04:19:10.146Z,99599.22
2019-04-03T04:21:59.012Z,99600.05
2019-04-03T04:24:47.851Z,99592.23
2019-04-03T04:27:38.616Z,99593.05
2019-04-03T04:30:27.232Z,99598.64
2019-04-03T04:33:17.221Z,99597.44
2019-04-03T04:36:06.666Z,99594.96
2019-04-03T04:38:55.840Z,99598.43
2019-04-03T04:41:46.046Z,99596.14
2019-04-03T04:44:34.889Z,99593.10
2019-04-03T04:47:23.729Z,99594.88
2019-04-03T04:50:12.687Z,99589.97
2019-04-03T04:53:01.516Z,99588.65
2019-04-03T04:55:43.671Z,99589.84
2019-04-03T04:58:32.500Z,99591.97
2019-04-03T05:01:21.341Z,99591.08
2019-04-03T05:04:10.159Z,99590.18
2019-04-03T05:07:00.166Z,99591.87
2019-04-03T05:09:49.542Z,99594.45
2019-04-03T05:12:39.157Z,99596.64
2019-04-03T05:15:28.947Z,99591.44
2019-04-03T05:18:36.903Z,99591.05
2019-04-03T05:21:25.731Z,99592.36
2019-04-03T05:24:14.644Z,99594.55
2019-04-03T05:30:52.651Z,99602.77
2019-04-03T05:33:42.380Z,99604.42
2019-04-03T05:36:32.109Z,99604.89
2019-04-03T05:39:22.065Z,99598.49
2019-04-03T05:42:11.502Z,99611.81
2019-04-03T05:45:00.323Z,99606.25
2019-04-03T05:47:49.151Z,99611.45
2019-04-03T05:50:37.967Z,99605.84
2019-04-03T05:56:16.098Z,99614.46
2019-04-03T05:59:04.952Z,99614.52
2019-04-03T06:01:53.959Z,99623.50
2019-04-03T06:04:42.901Z,99631.26
2019-04-03T06:07:31.754Z,99632.91
2019-04-03T06:10:39.768Z,99631.69
2019-04-03T06:13:09.415Z,99630.72
2019-04-03T06:15:58.307Z,99635.89
2019-04-03T06:18:47.693Z,99632.84
2019-04-03T06:21:37.676Z,99629.47
2019-04-03T06:24:26.790Z,99626.84
2019-04-03T06:27:19.130Z,99630.72
2019-04-03T06:33:22.062Z,99635.42
2019-04-03T06:35:51.551Z,99635.93
2019-04-03T06:38:40.364Z,99629.56
2019-04-03T06:41:29.444Z,99628.67
2019-04-03T06:44:18.497Z,99634.27
2019-04-03T06:47:07.400Z,99629.53
2019-04-03T06:49:56.462Z,99631.22
2019-04-03T06:52:46.776Z,99630.77
2019-04-03T06:55:29.057Z,99634.23
2019-04-03T06:58:17.864Z,99628.20
2019-04-03T07:01:06.683Z,99627.34
2019-04-03T07:03:55.536Z,99622.71
2019-04-03T07:06:45.176Z,99624.92
2019-04-03T07:09:36.820Z,99622.00
2019-04-03T07:12:25.527Z,99625.48
2019-04-03T07:15:14.350Z,99624.18
2019-04-03T07:18:05.216Z,99617.74
2019-04-03T07:20:53.970Z,99611.34
2019-04-03T07:23:42.799Z,99602.23
2019-04-03T07:26:31.826Z,99603.06
2019-04-03T07:29:20.754Z,99603.52
2019-04-03T07:32:09.632Z,99626.02
2019-04-03T07:34:58.452Z,99634.71
2019-04-03T07:37:49.047Z,99630.86
2019-04-03T07:40:37.828Z,99618.94
2019-04-03T07:43:27.521Z,99619.84
2019-04-03T07:46:17.240Z,99605.17
2019-04-03T07:49:08.511Z,99598.66
2019-04-03T07:51:56.631Z,99593.43
2019-04-03T07:54:45.838Z,99590.02
2019-04-03T07:57:29.434Z,99595.01
2019-04-03T08:00:18.776Z,99601.02
2019-04-03T08:03:07.596Z,99609.16
2019-04-03T08:05:56.877Z,99604.05
2019-04-03T08:11:54.977Z,99600.20
2019-04-03T08:14:44.160Z,99611.84
2019-04-03T08:17:34.380Z,99626.12
2019-04-03T08:23:51.511Z,99637.91
2019-04-03T08:26:40.389Z,99639.12
2019-04-03T08:29:29.249Z,99630.45
2019-04-03T08:32:18.382Z,99626.22
2019-04-03T08:35:19.285Z,99613.50
2019-04-03T08:37:59.404Z,99610.11
2019-04-03T08:40:49.779Z,99610.66
2019-04-03T08:43:38.965Z,99606.78
2019-04-03T08:46:27.792Z,99605.09
2019-04-03T08:49:16.657Z,99604.13
2019-04-03T08:52:06.124Z,99613.61
2019-04-03T08:54:56.127Z,99617.48
2019-04-03T08:57:38.689Z,99616.05
2019-04-03T09:00:46.647Z,99620.51
2019-04-03T09:03:35.497Z,99620.65
2019-04-03T09:06:24.320Z,99627.40
2019-04-03T09:09:13.166Z,99628.07
2019-04-03T09:12:02.077Z,99630.35
2019-04-03T09:14:50.887Z,99630.73
2019-04-03T09:17:58.824Z,99629.94
2019-04-03T09:20:47.752Z,99623.12
2019-04-03T09:23:36.593Z,99631.70
2019-04-03T09:26:44.480Z,99630.45
2019-04-03T09:29:33.300Z,99632.83
2019-04-03T09:32:41.226Z,99645.70
2019-04-03T09:35:32.165Z,99639.17
2019-04-03T09:38:20.640Z,99629.46
2019-04-03T09:41:28.552Z,99614.98
2019-04-03T09:44:17.383Z,99611.38
2019-04-03T09:47:06.382Z,99627.16
2019-04-03T09:49:56.779Z,99617.92
2019-04-03T09:52:49.396Z,99602.84
2019-04-03T09:55:37.613Z,99603.81
2019-04-03T09:58:19.320Z,99604.17
2019-04-03T10:01:27.206Z,99596.33
2019-04-03T10:04:16.122Z,99585.11
2019-04-03T10:07:05.219Z,99593.80
2019-04-03T10:09:54.834Z,99591.40
2019-04-03T10:12:47.618Z,99588.68
2019-04-03T10:15:35.195Z,99579.01
2019-04-03T10:18:24.067Z,99587.34
2019-04-03T10:21:12.904Z,99588.62
2019-04-03T10:24:02.123Z,99591.22
2019-04-03T10:26:52.280Z,99585.83
2019-04-03T10:29:41.209Z,99579.00
2019-04-03T10:32:30.216Z,99576.13
2019-04-03T10:35:20.669Z,99567.73
2019-04-03T10:38:09.484Z,99574.38
2019-04-03T10:40:58.602Z,99579.17
2019-04-03T10:43:48.916Z,99580.66
2019-04-03T10:46:37.784Z,99582.24
2019-04-03T10:52:43.981Z,99567.31
2019-04-03T10:55:31.916Z,99558.62
2019-04-03T10:58:13.580Z,99561.47
2019-04-03T11:04:10.362Z,99545.33
2019-04-03T11:06:59.184Z,99544.36
2019-04-03T11:09:48.069Z,99538.61
2019-04-03T11:12:36.877Z,99543.79
2019-04-03T11:15:45.109Z,99541.48
2019-04-03T11:18:35.661Z,99542.63
2019-04-03T11:21:25.925Z,99544.51
2019-04-03T11:24:14.782Z,99550.95
2019-04-03T11:27:28.973Z,99550.03
2019-04-03T11:30:34.209Z,99545.53
2019-04-03T11:33:23.031Z,99538.92
2019-04-03T11:36:12.234Z,99536.75
2019-04-03T11:39:13.146Z,99529.77
2019-04-03T11:42:23.221Z,99527.99
2019-04-03T11:45:04.753Z,99514.28
2019-04-03T11:47:53.534Z,99509.97
2019-04-03T11:50:42.367Z,99508.48
2019-04-03T11:53:31.246Z,99505.86
2019-04-03T11:56:20.141Z,99503.80
2019-04-03T11:59:02.534Z,99484.72
2019-04-03T12:01:51.366Z,99492.28
2019-04-03T12:04:41.732Z,99502.30
2019-04-03T12:07:30.773Z,99508.59
2019-04-03T12:10:19.706Z,99505.31
2019-04-03T12:13:08.592Z,99510.68
2019-04-03T12:15:58.397Z,99526.76
2019-04-03T12:18:48.434Z,99529.88
2019-04-03T12:21:38.710Z,99530.80
2019-04-03T12:24:46.660Z,99523.62
2019-04-03T12:27:36.314Z,99524.61
2019-04-03T12:30:26.926Z,99511.94
2019-04-03T12:36:16.972Z,99521.13
2019-04-03T12:39:28.225Z,99517.25
2019-04-03T12:42:18.782Z,99514.88
2019-04-03T12:48:37.948Z,99499.90
2019-04-03T12:54:24.449Z,99486.66
2019-04-03T12:57:13.325Z,99492.13
2019-04-03T13:00:02.490Z,99482.11
2019-04-03T13:02:53.050Z,99472.20
2019-04-03T13:05:43.269Z,99467.34
2019-04-03T13:08:32.111Z,99455.33
2019-04-03T13:14:35.592Z,99454.23
2019-04-03T13:17:24.656Z,99440.15
2019-04-03T13:20:14.469Z,99449.92
2019-04-03T13:23:05.094Z,99446.05
2019-04-03T13:26:13.005Z,99449.10
2019-04-03T13:29:02.266Z,99439.92
2019-04-03T13:31:52.851Z,99427.30
2019-04-03T13:34:43.258Z,99430.75
2019-04-03T13:37:33.545Z,99439.00
2019-04-03T13:40:22.392Z,99446.09
2019-04-03T13:43:11.385Z,99430.53
2019-04-03T13:46:00.228Z,99435.16
2019-04-03T13:48:49.069Z,99420.39
2019-04-03T13:51:37.921Z,99429.55
2019-04-03T13:54:27.287Z,99436.63
2019-04-03T13:57:17.408Z,99431.96
2019-04-03T14:00:01.670Z,99423.42
2019-04-03T14:02:50.590Z,99419.80
2019-04-03T14:05:42.631Z,99413.61
2019-04-03T14:08:31.410Z,99415.97
2019-04-03T14:11:20.268Z,99411.11
2019-04-03T14:14:09.127Z,99406.28
2019-04-03T14:16:58.166Z,99415.70
2019-04-03T14:20:06.230Z,99420.59
2019-04-03T14:22:55.444Z,99419.05
2019-04-03T14:25:45.722Z,99419.34
2019-04-03T14:28:35.438Z,99421.42
2019-04-03T14:31:34.846Z,99426.02
2019-04-03T14:34:15.701Z,99425.80
2019-04-03T14:37:26.240Z,99431.08
2019-04-03T14:40:14.501Z,99431.42
2019-04-03T14:43:05.188Z,99427.49
2019-04-03T14:45:55.549Z,99432.86
2019-04-03T14:48:44.894Z,99420.44
2019-04-03T14:51:34.977Z,99410.41
2019-04-03T14:54:24.562Z,99411.42
2019-04-03T14:57:20.741Z,99411.56
2019-04-03T14:59:57.743Z,99416.08
2019-04-03T15:02:46.630Z,99421.95
2019-04-03T15:05:38.895Z,99410.96
2019-04-03T15:08:26.088Z,99406.55
2019-04-03T15:11:14.924Z,99403.20
2019-04-03T15:14:04.112Z,99404.03
2019-04-03T15:20:23.130Z,99400.68
2019-04-03T15:23:14.182Z,99413.38
2019-04-03T15:26:03.344Z,99402.78
2019-04-03T15:28:53.696Z,99407.80
2019-04-03T15:32:01.667Z,99421.63
2019-04-03T15:34:51.175Z,99419.15
2019-04-03T15:37:42.396Z,99417.48
2019-04-03T15:40:31.665Z,99419.69
2019-04-03T15:43:20.481Z,99416.62
2019-04-03T15:46:09.681Z,99417.55
2019-04-03T15:48:58.819Z,99406.52
2019-04-03T15:51:49.206Z,99408.13
2019-04-03T15:54:38.115Z,99411.30
2019-04-03T15:57:27.009Z,99400.36
2019-04-03T16:00:10.361Z,99393.44
2019-04-03T16:02:59.223Z,99386.97
2019-04-03T16:05:48.079Z,99383.13
2019-04-03T16:08:36.906Z,99384.23
2019-04-03T16:11:26.976Z,99391.87
2019-04-03T16:14:18.587Z,99395.11
2019-04-03T16:20:21.383Z,99394.73
2019-04-03T16:23:10.669Z,99390.03
2019-04-03T16:26:00.842Z,99383.48
2019-04-03T16:29:09.340Z,99383.85
2019-04-03T16:31:59.550Z,99380.04
2019-04-03T16:34:49.958Z,99376.55
2019-04-03T16:37:57.985Z,99370.56
2019-04-03T16:40:47.513Z,99374.42
2019-04-03T16:43:37.354Z,99352.07
2019-04-03T16:46:26.361Z,99337.84
2019-04-03T16:49:15.331Z,99343.58
2019-04-03T16:52:05.596Z,99350.76
2019-04-03T16:54:54.971Z,99348.23
2019-04-03T16:57:43.970Z,99363.80
2019-04-03T17:00:28.181Z,99370.35
2019-04-03T17:03:17.590Z,99388.92
2019-04-03T17:06:06.778Z,99384.63
2019-04-03T17:08:58.704Z,99382.41
2019-04-03T17:11:48.874Z,99378.16
2019-04-03T17:14:38.151Z,99378.11
2019-04-03T17:17:27.155Z,99369.91
2019-04-03T17:20:16.205Z,99368.21
2019-04-03T17:23:17.539Z,99375.16
2019-04-03T17:26:08.895Z,99364.39
2019-04-03T17:29:04.028Z,99366.09
2019-04-03T17:31:47.649Z,99367.80
2019-04-03T17:34:37.860Z,99369.99
2019-04-03T17:37:29.597Z,99368.75
2019-04-03T17:40:17.763Z,99367.45
2019-04-03T17:43:38.338Z,99364.91
2019-04-03T17:46:17.754Z,99365.76
2019-04-03T17:49:07.153Z,99367.91
2019-04-03T17:51:58.144Z,99387.35
2019-04-03T17:54:46.780Z,99392.55
2019-04-03T17:57:37.331Z,99400.33
2019-04-03T18:00:21.584Z,99414.61
2019-04-03T18:03:10.445Z,99412.00
2019-04-03T18:05:59.352Z,99412.45
2019-04-03T18:08:48.228Z,99422.37
2019-04-03T18:11:37.454Z,99406.37
2019-04-03T18:17:35.791Z,99397.78
2019-04-03T18:20:24.600Z,99395.62
2019-04-03T18:23:13.540Z,99403.38
2019-04-03T18:26:02.369Z,99412.42
2019-04-03T18:28:51.347Z,99415.03
2019-04-03T18:31:40.265Z,99420.23
2019-04-03T18:34:29.252Z,99419.33
2019-04-03T18:37:18.140Z,99411.98
2019-04-03T18:40:27.873Z,99413.72
2019-04-03T18:43:16.723Z,99411.55
2019-04-03T18:46:05.561Z,99422.80
2019-04-03T18:48:58.843Z,99428.39
2019-04-03T18:51:44.999Z,99437.50
2019-04-03T18:54:33.817Z,99449.13
2019-04-03T18:57:22.677Z,99456.06
2019-04-03T19:00:06.083Z,99440.95
2019-04-03T19:02:54.930Z,99437.50
2019-04-03T19:05:43.786Z,99443.09
2019-04-03T19:08:32.643Z,99446.55
2019-04-03T19:11:21.568Z,99456.46
2019-04-03T19:14:10.413Z,99456.48
2019-04-03T19:16:59.322Z,99450.85
2019-04-03T19:19:48.219Z,99445.66
2019-04-03T19:23:02.319Z,99457.73
2019-04-03T19:25:46.878Z,99458.17
2019-04-03T19:28:35.737Z,99454.25
2019-04-03T19:31:05.319Z,99447.33
2019-04-03T19:33:54.231Z,99450.78
2019-04-03T19:36:43.278Z,99449.08
2019-04-03T19:39:33.743Z,99448.19
2019-04-03T19:42:22.579Z,99461.08
2019-04-03T19:45:12.951Z,99461.97
2019-04-03T19:48:02.186Z,99471.88
2019-04-03T19:50:51.034Z,99472.72
2019-04-03T19:53:59.946Z,99477.89
2019-04-03T19:56:49.567Z,99477.89
2019-04-03T20:02:42.710Z,99478.79
2019-04-03T20:05:30.134Z,99469.70
2019-04-03T20:08:19.053Z,99464.08
2019-04-03T20:11:07.936Z,99458.84
2019-04-03T20:13:56.768Z,99449.80
2019-04-03T20:16:45.683Z,99453.81
2019-04-03T20:19:34.524Z,99445.13
2019-04-03T20:22:23.377Z,99438.14
2019-04-03T20:25:14.525Z,99429.58
2019-04-03T20:28:02.944Z,99430.48
2019-04-03T20:30:51.882Z,99430.90
2019-04-03T20:36:50.649Z,99427.45
2019-04-03T20:39:39.028Z,99435.19
2019-04-03T20:42:27.909Z,99447.29
2019-04-03T20:45:35.833Z,99443.25
2019-04-03T20:48:28.093Z,99457.94
2019-04-03T20:51:15.312Z,99451.09
2019-04-03T20:54:04.244Z,99462.31
2019-04-03T20:56:57.888Z,99461.08
2019-04-03T20:59:57.652Z,99452.03
2019-04-03T21:02:27.031Z,99439.88
2019-04-03T21:05:18.179Z,99425.18
2019-04-03T21:08:06.844Z,99411.80
2019-04-03T21:10:55.683Z,99404.92
2019-04-03T21:13:44.679Z,99391.94
2019-04-03T21:16:52.559Z,99393.20
2019-04-03T21:19:41.388Z,99391.92
2019-04-03T21:22:30.420Z,99389.75
2019-04-03T21:25:20.784Z,99402.62
2019-04-03T21:28:11.012Z,99399.22
2019-04-03T21:31:00.162Z,99389.30
2019-04-03T21:33:49.024Z,99403.17
2019-04-03T21:36:38.852Z,99400.95
2019-04-03T21:39:28.427Z,99405.72
2019-04-03T21:42:36.307Z,99398.35
2019-04-03T21:45:25.128Z,99393.63
2019-04-03T21:48:14.373Z,99403.54
2019-04-03T21:51:04.611Z,99413.91
2019-04-03T21:54:12.706Z,99423.47
2019-04-03T21:57:01.530Z,99414.80
2019-04-03T21:59:50.380Z,99405.27
2019-04-03T22:02:32.140Z,99394.46
2019-04-03T22:05:21.069Z,99403.92
2019-04-03T22:08:09.908Z,99409.53
2019-04-03T22:14:13.895Z,99426.06
2019-04-03T22:17:02.843Z,99437.11
2019-04-03T22:19:51.658Z,99452.59
2019-04-03T22:22:40.506Z,99440.16
2019-04-03T22:25:29.343Z,99439.27
2019-04-03T22:28:18.186Z,99437.19
2019-04-03T22:31:07.013Z,99414.75
2019-04-03T22:33:58.621Z,99425.82
2019-04-03T22:36:46.462Z,99419.38
2019-04-03T22:39:36.986Z,99426.73
2019-04-03T22:42:25.871Z,99428.47
2019-04-03T22:45:14.730Z,99431.44
2019-04-03T22:48:03.559Z,99419.45
2019-04-03T22:50:52.418Z,99434.51
2019-04-03T23:00:25.869Z,99438.28
2019-04-03T23:03:07.963Z,99444.41
2019-04-03T23:05:56.814Z,99434.49
2019-04-03T23:08:45.636Z,99421.92
2019-04-03T23:11:34.549Z,99416.28
2019-04-03T23:14:23.408Z,99424.94
2019-04-03T23:17:14.013Z,99411.16
2019-04-03T23:20:02.804Z,99370.14
2019-04-03T23:22:51.634Z,99381.73
2019-04-03T23:25:40.531Z,99386.16
2019-04-03T23:28:29.365Z,99375.27
2019-04-03T23:31:18.224Z,99388.06
2019-04-03T23:34:07.116Z,99374.69
2019-04-03T23:36:55.951Z,99363.43
2019-04-03T23:39:44.770Z,99366.88
2019-04-03T23:42:33.604Z,99359.61
2019-04-03T23:48:22.416Z,99364.31
2019-04-03T23:51:22.652Z,99367.78
2019-04-03T23:54:03.321Z,99360.50
2019-04-03T23:56:53.390Z,99348.92
2019-04-03T23:59:42.454Z,99348.94
